Time;durP1;ratioP1;P1;durP2;ratioP2;P2;SDS_P1;SDS_P2;PMS_P1;PMS_P2;Temp;Humidity;BMP_temperature;BMP_pressure;BME280_temperature;BME280_humidity;BME280_pressure;Samples;Min_cycle;Max_cycle;Signal;HPM_P1;HPM_P2
2020/11/18 00:00:07;;;;;;;7.95;5.55;;;;;;;2.92;70.14551;96312.98;;;;
2020/11/18 00:01:08;;;;;;;7.95;5.55;;;;;;;2.92;70.14551;96312.98;;;;
2020/11/18 00:02:09;;;;;;;7.95;5.55;;;;;;;2.92;70.14551;96312.98;;;;
2020/11/18 00:03:10;;;;;;;7.95;5.55;;;;;;;2.92;70.14551;96312.98;;;;
2020/11/18 00:04:10;;;;;;;7.95;5.55;;;;;;;2.92;70.14551;96312.98;;;;
2020/11/18 00:05:11;;;;;;;7.95;5.55;;;;;;;2.92;70.14551;96312.98;;;;
2020/11/18 00:06:11;;;;;;;8.65;4.649999;;;;;;;2.89;70.31836;96311.16;;;;
2020/11/18 00:07:12;;;;;;;8.65;4.649999;;;;;;;2.89;70.31836;96311.16;;;;
2020/11/18 00:08:12;;;;;;;8.65;4.649999;;;;;;;2.89;70.31836;96311.16;;;;
2020/11/18 00:09:12;;;;;;;8.65;4.649999;;;;;;;2.89;70.31836;96311.16;;;;
2020/11/18 00:10:13;;;;;;;8.65;4.649999;;;;;;;2.89;70.31836;96311.16;;;;
2020/11/18 00:11:14;;;;;;;8.65;4.649999;;;;;;;2.89;70.31836;96311.16;;;;
2020/11/18 00:12:14;;;;;;;8.65;4.649999;;;;;;;2.89;70.31836;96311.16;;;;
2020/11/18 00:13:15;;;;;;;8.65;4.649999;;;;;;;2.89;70.31836;96311.16;;;;
2020/11/18 00:14:15;;;;;;;8.65;4.649999;;;;;;;2.89;70.31836;96311.16;;;;
2020/11/18 00:15:16;;;;;;;8.65;4.649999;;;;;;;2.89;70.31836;96311.16;;;;
2020/11/18 00:16:16;;;;;;;6.349999;3.95;;;;;;;2.76;70.57227;96297.38;;;;
2020/11/18 00:17:17;;;;;;;6.349999;3.95;;;;;;;2.76;70.57227;96297.38;;;;
2020/11/18 00:18:18;;;;;;;6.349999;3.95;;;;;;;2.76;70.57227;96297.38;;;;
2020/11/18 00:19:18;;;;;;;6.349999;3.95;;;;;;;2.76;70.57227;96297.38;;;;
2020/11/18 00:20:19;;;;;;;6.349999;3.95;;;;;;;2.76;70.57227;96297.38;;;;
2020/11/18 00:21:19;;;;;;;6.349999;3.95;;;;;;;2.76;70.57227;96297.38;;;;
2020/11/18 00:22:20;;;;;;;6.349999;3.95;;;;;;;2.76;70.57227;96297.38;;;;
2020/11/18 00:23:20;;;;;;;6.349999;3.95;;;;;;;2.76;70.57227;96297.38;;;;
2020/11/18 00:24:21;;;;;;;6.349999;3.95;;;;;;;2.76;70.57227;96297.38;;;;
2020/11/18 00:25:21;;;;;;;6.349999;3.95;;;;;;;2.76;70.57227;96297.38;;;;
2020/11/18 00:26:22;;;;;;;6.349999;3.95;;;;;;;2.76;70.57227;96297.38;;;;
2020/11/18 00:27:22;;;;;;;5.950001;3.900001;;;;;;;2.71;70.73047;96313.04;;;;
2020/11/18 00:28:23;;;;;;;5.950001;3.900001;;;;;;;2.71;70.73047;96313.04;;;;
2020/11/18 00:29:23;;;;;;;5.950001;3.900001;;;;;;;2.71;70.73047;96313.04;;;;
2020/11/18 00:30:24;;;;;;;5.950001;3.900001;;;;;;;2.71;70.73047;96313.04;;;;
2020/11/18 00:31:25;;;;;;;5.950001;3.900001;;;;;;;2.71;70.73047;96313.04;;;;
2020/11/18 00:32:25;;;;;;;5.950001;3.900001;;;;;;;2.71;70.73047;96313.04;;;;
2020/11/18 00:33:26;;;;;;;5.950001;3.900001;;;;;;;2.71;70.73047;96313.04;;;;
2020/11/18 00:34:26;;;;;;;5.950001;3.900001;;;;;;;2.71;70.73047;96313.04;;;;
2020/11/18 00:35:27;;;;;;;5.950001;3.900001;;;;;;;2.71;70.73047;96313.04;;;;
2020/11/18 00:36:27;;;;;;;5.950001;3.900001;;;;;;;2.71;70.73047;96313.04;;;;
2020/11/18 00:37:28;;;;;;;5.950001;3.900001;;;;;;;2.71;70.73047;96313.04;;;;
2020/11/18 00:38:28;;;;;;;6.6;4.099999;;;;;;;2.56;70.83203;96331.13;;;;
2020/11/18 00:39:29;;;;;;;6.6;4.099999;;;;;;;2.56;70.83203;96331.13;;;;
2020/11/18 00:40:29;;;;;;;6.6;4.099999;;;;;;;2.56;70.83203;96331.13;;;;
2020/11/18 00:41:30;;;;;;;6.6;4.099999;;;;;;;2.56;70.83203;96331.13;;;;
2020/11/18 00:42:30;;;;;;;6.6;4.099999;;;;;;;2.56;70.83203;96331.13;;;;
2020/11/18 00:43:31;;;;;;;6.6;4.099999;;;;;;;2.56;70.83203;96331.13;;;;
2020/11/18 00:44:31;;;;;;;6.6;4.099999;;;;;;;2.56;70.83203;96331.13;;;;
2020/11/18 00:45:32;;;;;;;6.6;4.099999;;;;;;;2.56;70.83203;96331.13;;;;
2020/11/18 00:46:32;;;;;;;6.6;4.099999;;;;;;;2.56;70.83203;96331.13;;;;
2020/11/18 00:47:33;;;;;;;6.6;4.099999;;;;;;;2.56;70.83203;96331.13;;;;
2020/11/18 00:48:33;;;;;;;8;4.55;;;;;;;2.44;70.96973;96329.76;;;;
2020/11/18 00:49:34;;;;;;;8;4.55;;;;;;;2.44;70.96973;96329.76;;;;
2020/11/18 00:50:34;;;;;;;8;4.55;;;;;;;2.44;70.96973;96329.76;;;;
2020/11/18 00:51:35;;;;;;;8;4.55;;;;;;;2.44;70.96973;96329.76;;;;
2020/11/18 00:52:35;;;;;;;8;4.55;;;;;;;2.44;70.96973;96329.76;;;;
2020/11/18 00:53:36;;;;;;;8;4.55;;;;;;;2.44;70.96973;96329.76;;;;
2020/11/18 00:54:36;;;;;;;8;4.55;;;;;;;2.44;70.96973;96329.76;;;;
2020/11/18 00:55:36;;;;;;;8;4.55;;;;;;;2.44;70.96973;96329.76;;;;
2020/11/18 00:56:37;;;;;;;8;4.55;;;;;;;2.44;70.96973;96329.76;;;;
2020/11/18 00:57:37;;;;;;;8;4.55;;;;;;;2.44;70.96973;96329.76;;;;
2020/11/18 00:58:38;;;;;;;8;4.55;;;;;;;2.44;70.96973;96329.76;;;;
2020/11/18 00:59:38;;;;;;;7.849999;4.55;;;;;;;2.25;71.21191;96316.71;;;;
2020/11/18 01:00:39;;;;;;;7.849999;4.55;;;;;;;2.25;71.21191;96316.71;;;;
2020/11/18 01:01:39;;;;;;;7.849999;4.55;;;;;;;2.25;71.21191;96316.71;;;;
2020/11/18 01:02:40;;;;;;;7.849999;4.55;;;;;;;2.25;71.21191;96316.71;;;;
2020/11/18 01:03:40;;;;;;;7.849999;4.55;;;;;;;2.25;71.21191;96316.71;;;;
2020/11/18 01:04:42;;;;;;;7.849999;4.55;;;;;;;2.25;71.21191;96316.71;;;;
2020/11/18 01:05:43;;;;;;;7.849999;4.55;;;;;;;2.25;71.21191;96316.71;;;;
2020/11/18 01:06:43;;;;;;;7.849999;4.55;;;;;;;2.25;71.21191;96316.71;;;;
2020/11/18 01:07:44;;;;;;;7.849999;4.55;;;;;;;2.25;71.21191;96316.71;;;;
2020/11/18 01:08:44;;;;;;;7.849999;4.55;;;;;;;2.25;71.21191;96316.71;;;;
2020/11/18 01:09:45;;;;;;;5.15;3.599999;;;;;;;2.15;71.38477;96307.06;;;;
2020/11/18 01:10:45;;;;;;;5.15;3.599999;;;;;;;2.15;71.38477;96307.06;;;;
2020/11/18 01:11:46;;;;;;;5.15;3.599999;;;;;;;2.15;71.38477;96307.06;;;;
2020/11/18 01:12:46;;;;;;;5.15;3.599999;;;;;;;2.15;71.38477;96307.06;;;;
2020/11/18 01:13:47;;;;;;;5.15;3.599999;;;;;;;2.15;71.38477;96307.06;;;;
2020/11/18 01:14:47;;;;;;;5.15;3.599999;;;;;;;2.15;71.38477;96307.06;;;;
2020/11/18 01:15:48;;;;;;;5.15;3.599999;;;;;;;2.15;71.38477;96307.06;;;;
2020/11/18 01:16:48;;;;;;;5.15;3.599999;;;;;;;2.15;71.38477;96307.06;;;;
2020/11/18 01:17:49;;;;;;;5.15;3.599999;;;;;;;2.15;71.38477;96307.06;;;;
2020/11/18 01:18:49;;;;;;;5.15;3.599999;;;;;;;2.15;71.38477;96307.06;;;;
2020/11/18 01:19:50;;;;;;;5.15;3.599999;;;;;;;2.15;71.38477;96307.06;;;;
2020/11/18 01:20:50;;;;;;;9.3;4.45;;;;;;;2.01;71.5498;96309.84;;;;
2020/11/18 01:21:51;;;;;;;9.3;4.45;;;;;;;2.01;71.5498;96309.84;;;;
2020/11/18 01:22:51;;;;;;;9.3;4.45;;;;;;;2.01;71.5498;96309.84;;;;
2020/11/18 01:23:52;;;;;;;9.3;4.45;;;;;;;2.01;71.5498;96309.84;;;;
2020/11/18 01:24:52;;;;;;;9.3;4.45;;;;;;;2.01;71.5498;96309.84;;;;
2020/11/18 01:25:53;;;;;;;9.3;4.45;;;;;;;2.01;71.5498;96309.84;;;;
2020/11/18 01:26:53;;;;;;;9.3;4.45;;;;;;;2.01;71.5498;96309.84;;;;
2020/11/18 01:27:54;;;;;;;9.3;4.45;;;;;;;2.01;71.5498;96309.84;;;;
2020/11/18 01:28:54;;;;;;;9.3;4.45;;;;;;;2.01;71.5498;96309.84;;;;
2020/11/18 01:29:55;;;;;;;9.3;4.45;;;;;;;2.01;71.5498;96309.84;;;;
2020/11/18 01:30:55;;;;;;;9.3;4.45;;;;;;;2.01;71.5498;96309.84;;;;
2020/11/18 01:31:55;;;;;;;6.349999;4.35;;;;;;;1.94;71.67383;96293.74;;;;
2020/11/18 01:32:56;;;;;;;6.349999;4.35;;;;;;;1.94;71.67383;96293.74;;;;
2020/11/18 01:33:57;;;;;;;6.349999;4.35;;;;;;;1.94;71.67383;96293.74;;;;
2020/11/18 01:34:57;;;;;;;6.349999;4.35;;;;;;;1.94;71.67383;96293.74;;;;
2020/11/18 01:35:58;;;;;;;6.349999;4.35;;;;;;;1.94;71.67383;96293.74;;;;
2020/11/18 01:36:58;;;;;;;6.349999;4.35;;;;;;;1.94;71.67383;96293.74;;;;
2020/11/18 01:37:59;;;;;;;6.349999;4.35;;;;;;;1.94;71.67383;96293.74;;;;
2020/11/18 01:38:59;;;;;;;6.349999;4.35;;;;;;;1.94;71.67383;96293.74;;;;
2020/11/18 01:40:00;;;;;;;6.349999;4.35;;;;;;;1.94;71.67383;96293.74;;;;
2020/11/18 01:41:00;;;;;;;6.349999;4.35;;;;;;;1.94;71.67383;96293.74;;;;
2020/11/18 01:42:01;;;;;;;6.95;4.15;;;;;;;1.77;71.87695;96295.53;;;;
2020/11/18 01:43:02;;;;;;;6.95;4.15;;;;;;;1.77;71.87695;96295.53;;;;
2020/11/18 01:44:02;;;;;;;6.95;4.15;;;;;;;1.77;71.87695;96295.53;;;;
2020/11/18 01:45:03;;;;;;;6.95;4.15;;;;;;;1.77;71.87695;96295.53;;;;
2020/11/18 01:46:04;;;;;;;6.95;4.15;;;;;;;1.77;71.87695;96295.53;;;;
2020/11/18 01:47:05;;;;;;;6.95;4.15;;;;;;;1.77;71.87695;96295.53;;;;
2020/11/18 01:48:07;;;;;;;6.95;4.15;;;;;;;1.77;71.87695;96295.53;;;;
2020/11/18 01:49:08;;;;;;;6.95;4.15;;;;;;;1.77;71.87695;96295.53;;;;
2020/11/18 01:50:09;;;;;;;6.95;4.15;;;;;;;1.77;71.87695;96295.53;;;;
2020/11/18 01:51:10;;;;;;;6.95;4.15;;;;;;;1.77;71.87695;96295.53;;;;
2020/11/18 01:52:10;;;;;;;6.95;4.15;;;;;;;1.77;71.87695;96295.53;;;;
2020/11/18 01:53:11;;;;;;;7.099999;3.9;;;;;;;1.72;72.04883;96278.72;;;;
2020/11/18 01:54:12;;;;;;;7.099999;3.9;;;;;;;1.72;72.04883;96278.72;;;;
2020/11/18 01:55:12;;;;;;;7.099999;3.9;;;;;;;1.72;72.04883;96278.72;;;;
2020/11/18 01:56:13;;;;;;;7.099999;3.9;;;;;;;1.72;72.04883;96278.72;;;;
2020/11/18 01:57:16;;;;;;;7.099999;3.9;;;;;;;1.72;72.04883;96278.72;;;;
2020/11/18 01:58:17;;;;;;;7.099999;3.9;;;;;;;1.72;72.04883;96278.72;;;;
2020/11/18 01:59:18;;;;;;;7.099999;3.9;;;;;;;1.72;72.04883;96278.72;;;;
2020/11/18 02:00:18;;;;;;;7.099999;3.9;;;;;;;1.72;72.04883;96278.72;;;;
2020/11/18 02:01:19;;;;;;;7.099999;3.9;;;;;;;1.72;72.04883;96278.72;;;;
2020/11/18 02:02:19;;;;;;;7.099999;3.9;;;;;;;1.72;72.04883;96278.72;;;;
2020/11/18 02:03:20;;;;;;;4.95;3.299999;;;;;;;1.61;72.09277;96269.67;;;;
2020/11/18 02:04:20;;;;;;;4.95;3.299999;;;;;;;1.61;72.09277;96269.67;;;;
2020/11/18 02:05:21;;;;;;;4.95;3.299999;;;;;;;1.61;72.09277;96269.67;;;;
2020/11/18 02:06:21;;;;;;;4.95;3.299999;;;;;;;1.61;72.09277;96269.67;;;;
2020/11/18 02:07:22;;;;;;;4.95;3.299999;;;;;;;1.61;72.09277;96269.67;;;;
2020/11/18 02:08:22;;;;;;;4.95;3.299999;;;;;;;1.61;72.09277;96269.67;;;;
2020/11/18 02:09:24;;;;;;;4.95;3.299999;;;;;;;1.61;72.09277;96269.67;;;;
2020/11/18 02:10:24;;;;;;;4.95;3.299999;;;;;;;1.61;72.09277;96269.67;;;;
2020/11/18 02:11:25;;;;;;;4.95;3.299999;;;;;;;1.61;72.09277;96269.67;;;;
2020/11/18 02:12:27;;;;;;;4.95;3.299999;;;;;;;1.61;72.09277;96269.67;;;;
2020/11/18 02:13:28;;;;;;;4.95;3.299999;;;;;;;1.61;72.09277;96269.67;;;;
2020/11/18 02:14:28;;;;;;;6.5;3.900001;;;;;;;1.6;72.2168;96279.05;;;;
2020/11/18 02:15:29;;;;;;;6.5;3.900001;;;;;;;1.6;72.2168;96279.05;;;;
2020/11/18 02:16:29;;;;;;;6.5;3.900001;;;;;;;1.6;72.2168;96279.05;;;;
2020/11/18 02:17:30;;;;;;;6.5;3.900001;;;;;;;1.6;72.2168;96279.05;;;;
2020/11/18 02:18:30;;;;;;;6.5;3.900001;;;;;;;1.6;72.2168;96279.05;;;;
2020/11/18 02:19:31;;;;;;;6.5;3.900001;;;;;;;1.6;72.2168;96279.05;;;;
2020/11/18 02:20:32;;;;;;;6.5;3.900001;;;;;;;1.6;72.2168;96279.05;;;;
2020/11/18 02:21:33;;;;;;;6.5;3.900001;;;;;;;1.6;72.2168;96279.05;;;;
2020/11/18 02:22:34;;;;;;;6.5;3.900001;;;;;;;1.6;72.2168;96279.05;;;;
2020/11/18 02:23:35;;;;;;;6.5;3.900001;;;;;;;1.6;72.2168;96279.05;;;;
2020/11/18 02:24:35;;;;;;;6.65;3.75;;;;;;;1.5;72.21973;96274.76;;;;
2020/11/18 02:25:36;;;;;;;6.65;3.75;;;;;;;1.5;72.21973;96274.76;;;;
2020/11/18 02:26:36;;;;;;;6.65;3.75;;;;;;;1.5;72.21973;96274.76;;;;
2020/11/18 02:27:37;;;;;;;6.65;3.75;;;;;;;1.5;72.21973;96274.76;;;;
2020/11/18 02:28:37;;;;;;;6.65;3.75;;;;;;;1.5;72.21973;96274.76;;;;
2020/11/18 02:29:38;;;;;;;6.65;3.75;;;;;;;1.5;72.21973;96274.76;;;;
2020/11/18 02:30:38;;;;;;;6.65;3.75;;;;;;;1.5;72.21973;96274.76;;;;
2020/11/18 02:31:39;;;;;;;6.65;3.75;;;;;;;1.5;72.21973;96274.76;;;;
2020/11/18 02:32:40;;;;;;;6.65;3.75;;;;;;;1.5;72.21973;96274.76;;;;
2020/11/18 02:33:40;;;;;;;6.65;3.75;;;;;;;1.5;72.21973;96274.76;;;;
2020/11/18 02:34:41;;;;;;;6.65;3.75;;;;;;;1.5;72.21973;96274.76;;;;
2020/11/18 02:35:41;;;;;;;7.1;4.1;;;;;;;1.44;73.00684;96270.04;;;;
2020/11/18 02:36:41;;;;;;;7.1;4.1;;;;;;;1.44;73.00684;96270.04;;;;
2020/11/18 02:37:42;;;;;;;7.1;4.1;;;;;;;1.44;73.00684;96270.04;;;;
2020/11/18 02:38:43;;;;;;;7.1;4.1;;;;;;;1.44;73.00684;96270.04;;;;
2020/11/18 02:39:43;;;;;;;7.1;4.1;;;;;;;1.44;73.00684;96270.04;;;;
2020/11/18 02:40:43;;;;;;;7.1;4.1;;;;;;;1.44;73.00684;96270.04;;;;
2020/11/18 02:41:44;;;;;;;7.1;4.1;;;;;;;1.44;73.00684;96270.04;;;;
2020/11/18 02:42:47;;;;;;;7.1;4.1;;;;;;;1.44;73.00684;96270.04;;;;
2020/11/18 02:43:47;;;;;;;7.1;4.1;;;;;;;1.44;73.00684;96270.04;;;;
2020/11/18 02:44:47;;;;;;;7.1;4.1;;;;;;;1.44;73.00684;96270.04;;;;
2020/11/18 02:45:48;;;;;;;5.3;3.9;;;;;;;1.43;72.78418;96265.31;;;;
2020/11/18 02:46:48;;;;;;;5.3;3.9;;;;;;;1.43;72.78418;96265.31;;;;
2020/11/18 02:47:49;;;;;;;5.3;3.9;;;;;;;1.43;72.78418;96265.31;;;;
2020/11/18 02:48:49;;;;;;;5.3;3.9;;;;;;;1.43;72.78418;96265.31;;;;
2020/11/18 02:49:50;;;;;;;5.3;3.9;;;;;;;1.43;72.78418;96265.31;;;;
2020/11/18 02:50:50;;;;;;;5.3;3.9;;;;;;;1.43;72.78418;96265.31;;;;
2020/11/18 02:51:51;;;;;;;5.3;3.9;;;;;;;1.43;72.78418;96265.31;;;;
2020/11/18 02:52:51;;;;;;;5.3;3.9;;;;;;;1.43;72.78418;96265.31;;;;
2020/11/18 02:53:51;;;;;;;5.3;3.9;;;;;;;1.43;72.78418;96265.31;;;;
2020/11/18 02:54:52;;;;;;;5.3;3.9;;;;;;;1.43;72.78418;96265.31;;;;
2020/11/18 02:55:52;;;;;;;5.3;3.9;;;;;;;1.43;72.78418;96265.31;;;;
2020/11/18 02:56:53;;;;;;;8.350001;4.35;;;;;;;1.37;72.83496;96243.83;;;;
2020/11/18 02:57:53;;;;;;;8.350001;4.35;;;;;;;1.37;72.83496;96243.83;;;;
2020/11/18 02:58:54;;;;;;;8.350001;4.35;;;;;;;1.37;72.83496;96243.83;;;;
2020/11/18 02:59:54;;;;;;;8.350001;4.35;;;;;;;1.37;72.83496;96243.83;;;;
2020/11/18 03:00:55;;;;;;;8.350001;4.35;;;;;;;1.37;72.83496;96243.83;;;;
2020/11/18 03:01:55;;;;;;;8.350001;4.35;;;;;;;1.37;72.83496;96243.83;;;;
2020/11/18 03:02:56;;;;;;;8.350001;4.35;;;;;;;1.37;72.83496;96243.83;;;;
2020/11/18 03:03:56;;;;;;;8.350001;4.35;;;;;;;1.37;72.83496;96243.83;;;;
2020/11/18 03:04:57;;;;;;;8.350001;4.35;;;;;;;1.37;72.83496;96243.83;;;;
2020/11/18 03:05:57;;;;;;;8.350001;4.35;;;;;;;1.37;72.83496;96243.83;;;;
2020/11/18 03:06:58;;;;;;;22.55;9.000001;;;;;;;1.36;72.94043;96245.64;;;;
2020/11/18 03:07:58;;;;;;;22.55;9.000001;;;;;;;1.36;72.94043;96245.64;;;;
2020/11/18 03:08:59;;;;;;;22.55;9.000001;;;;;;;1.36;72.94043;96245.64;;;;
2020/11/18 03:09:59;;;;;;;22.55;9.000001;;;;;;;1.36;72.94043;96245.64;;;;
2020/11/18 03:11:00;;;;;;;22.55;9.000001;;;;;;;1.36;72.94043;96245.64;;;;
2020/11/18 03:12:00;;;;;;;22.55;9.000001;;;;;;;1.36;72.94043;96245.64;;;;
2020/11/18 03:13:01;;;;;;;22.55;9.000001;;;;;;;1.36;72.94043;96245.64;;;;
2020/11/18 03:14:01;;;;;;;22.55;9.000001;;;;;;;1.36;72.94043;96245.64;;;;
2020/11/18 03:15:02;;;;;;;22.55;9.000001;;;;;;;1.36;72.94043;96245.64;;;;
2020/11/18 03:16:03;;;;;;;22.55;9.000001;;;;;;;1.36;72.94043;96245.64;;;;
2020/11/18 03:17:04;;;;;;;22.55;9.000001;;;;;;;1.36;72.94043;96245.64;;;;
2020/11/18 03:18:04;;;;;;;11.55;5.550002;;;;;;;1.29;73.0127;96240.61;;;;
2020/11/18 03:19:05;;;;;;;11.55;5.550002;;;;;;;1.29;73.0127;96240.61;;;;
2020/11/18 03:20:05;;;;;;;11.55;5.550002;;;;;;;1.29;73.0127;96240.61;;;;
2020/11/18 03:21:06;;;;;;;11.55;5.550002;;;;;;;1.29;73.0127;96240.61;;;;
2020/11/18 03:22:06;;;;;;;11.55;5.550002;;;;;;;1.29;73.0127;96240.61;;;;
2020/11/18 03:23:07;;;;;;;11.55;5.550002;;;;;;;1.29;73.0127;96240.61;;;;
2020/11/18 03:24:07;;;;;;;11.55;5.550002;;;;;;;1.29;73.0127;96240.61;;;;
2020/11/18 03:25:08;;;;;;;11.55;5.550002;;;;;;;1.29;73.0127;96240.61;;;;
2020/11/18 03:26:08;;;;;;;11.55;5.550002;;;;;;;1.29;73.0127;96240.61;;;;
2020/11/18 03:27:09;;;;;;;11.55;5.550002;;;;;;;1.29;73.0127;96240.61;;;;
2020/11/18 03:28:09;;;;;;;11.55;5.550002;;;;;;;1.29;73.0127;96240.61;;;;
2020/11/18 03:29:10;;;;;;;9.5;4.25;;;;;;;1.23;73.05371;96237.72;;;;
2020/11/18 03:30:10;;;;;;;9.5;4.25;;;;;;;1.23;73.05371;96237.72;;;;
2020/11/18 03:31:11;;;;;;;9.5;4.25;;;;;;;1.23;73.05371;96237.72;;;;
2020/11/18 03:32:11;;;;;;;9.5;4.25;;;;;;;1.23;73.05371;96237.72;;;;
2020/11/18 03:33:12;;;;;;;9.5;4.25;;;;;;;1.23;73.05371;96237.72;;;;
2020/11/18 03:34:12;;;;;;;9.5;4.25;;;;;;;1.23;73.05371;96237.72;;;;
2020/11/18 03:35:13;;;;;;;9.5;4.25;;;;;;;1.23;73.05371;96237.72;;;;
2020/11/18 03:36:13;;;;;;;9.5;4.25;;;;;;;1.23;73.05371;96237.72;;;;
2020/11/18 03:37:14;;;;;;;9.5;4.25;;;;;;;1.23;73.05371;96237.72;;;;
2020/11/18 03:38:14;;;;;;;9.5;4.25;;;;;;;1.23;73.05371;96237.72;;;;
2020/11/18 03:39:15;;;;;;;9.249999;4.3;;;;;;;1.07;73.09961;96235.78;;;;
2020/11/18 03:40:15;;;;;;;9.249999;4.3;;;;;;;1.07;73.09961;96235.78;;;;
2020/11/18 03:41:16;;;;;;;9.249999;4.3;;;;;;;1.07;73.09961;96235.78;;;;
2020/11/18 03:42:16;;;;;;;9.249999;4.3;;;;;;;1.07;73.09961;96235.78;;;;
2020/11/18 03:43:17;;;;;;;9.249999;4.3;;;;;;;1.07;73.09961;96235.78;;;;
2020/11/18 03:44:18;;;;;;;9.249999;4.3;;;;;;;1.07;73.09961;96235.78;;;;
2020/11/18 03:45:18;;;;;;;9.249999;4.3;;;;;;;1.07;73.09961;96235.78;;;;
2020/11/18 03:46:19;;;;;;;9.249999;4.3;;;;;;;1.07;73.09961;96235.78;;;;
2020/11/18 03:47:19;;;;;;;9.249999;4.3;;;;;;;1.07;73.09961;96235.78;;;;
2020/11/18 03:48:19;;;;;;;9.249999;4.3;;;;;;;1.07;73.09961;96235.78;;;;
2020/11/18 03:49:20;;;;;;;9.249999;4.3;;;;;;;1.07;73.09961;96235.78;;;;
2020/11/18 03:50:20;;;;;;;7.900001;4.300001;;;;;;;0.93;73.35938;96230.55;;;;
2020/11/18 03:51:21;;;;;;;7.900001;4.300001;;;;;;;0.93;73.35938;96230.55;;;;
2020/11/18 03:52:21;;;;;;;7.900001;4.300001;;;;;;;0.93;73.35938;96230.55;;;;
2020/11/18 03:53:22;;;;;;;7.900001;4.300001;;;;;;;0.93;73.35938;96230.55;;;;
2020/11/18 03:54:23;;;;;;;7.900001;4.300001;;;;;;;0.93;73.35938;96230.55;;;;
2020/11/18 03:55:23;;;;;;;7.900001;4.300001;;;;;;;0.93;73.35938;96230.55;;;;
2020/11/18 03:56:24;;;;;;;7.900001;4.300001;;;;;;;0.93;73.35938;96230.55;;;;
2020/11/18 03:57:24;;;;;;;7.900001;4.300001;;;;;;;0.93;73.35938;96230.55;;;;
2020/11/18 03:58:25;;;;;;;7.900001;4.300001;;;;;;;0.93;73.35938;96230.55;;;;
2020/11/18 03:59:25;;;;;;;7.900001;4.300001;;;;;;;0.93;73.35938;96230.55;;;;
2020/11/18 04:00:26;;;;;;;7.5;4.1;;;;;;;0.84;73.56348;96229.71;;;;
2020/11/18 04:01:26;;;;;;;7.5;4.1;;;;;;;0.84;73.56348;96229.71;;;;
2020/11/18 04:02:27;;;;;;;7.5;4.1;;;;;;;0.84;73.56348;96229.71;;;;
2020/11/18 04:03:27;;;;;;;7.5;4.1;;;;;;;0.84;73.56348;96229.71;;;;
2020/11/18 04:04:28;;;;;;;7.5;4.1;;;;;;;0.84;73.56348;96229.71;;;;
2020/11/18 04:05:28;;;;;;;7.5;4.1;;;;;;;0.84;73.56348;96229.71;;;;
2020/11/18 04:06:29;;;;;;;7.5;4.1;;;;;;;0.84;73.56348;96229.71;;;;
2020/11/18 04:07:29;;;;;;;7.5;4.1;;;;;;;0.84;73.56348;96229.71;;;;
2020/11/18 04:08:30;;;;;;;7.5;4.1;;;;;;;0.84;73.56348;96229.71;;;;
2020/11/18 04:09:30;;;;;;;7.5;4.1;;;;;;;0.84;73.56348;96229.71;;;;
2020/11/18 04:10:31;;;;;;;7.5;4.1;;;;;;;0.84;73.56348;96229.71;;;;
2020/11/18 04:11:31;;;;;;;4.9;3.600001;;;;;;;0.78;73.75195;96228.99;;;;
2020/11/18 04:12:32;;;;;;;4.9;3.600001;;;;;;;0.78;73.75195;96228.99;;;;
2020/11/18 04:13:32;;;;;;;4.9;3.600001;;;;;;;0.78;73.75195;96228.99;;;;
2020/11/18 04:14:33;;;;;;;4.9;3.600001;;;;;;;0.78;73.75195;96228.99;;;;
2020/11/18 04:15:33;;;;;;;4.9;3.600001;;;;;;;0.78;73.75195;96228.99;;;;
2020/11/18 04:16:34;;;;;;;4.9;3.600001;;;;;;;0.78;73.75195;96228.99;;;;
2020/11/18 04:17:34;;;;;;;4.9;3.600001;;;;;;;0.78;73.75195;96228.99;;;;
2020/11/18 04:18:35;;;;;;;4.9;3.600001;;;;;;;0.78;73.75195;96228.99;;;;
2020/11/18 04:19:35;;;;;;;4.9;3.600001;;;;;;;0.78;73.75195;96228.99;;;;
2020/11/18 04:20:36;;;;;;;4.9;3.600001;;;;;;;0.78;73.75195;96228.99;;;;
2020/11/18 04:21:36;;;;;;;7.05;3.65;;;;;;;0.72;73.9082;96234.09;;;;
2020/11/18 04:22:37;;;;;;;7.05;3.65;;;;;;;0.72;73.9082;96234.09;;;;
2020/11/18 04:23:37;;;;;;;7.05;3.65;;;;;;;0.72;73.9082;96234.09;;;;
2020/11/18 04:24:38;;;;;;;7.05;3.65;;;;;;;0.72;73.9082;96234.09;;;;
2020/11/18 04:25:39;;;;;;;7.05;3.65;;;;;;;0.72;73.9082;96234.09;;;;
2020/11/18 04:26:39;;;;;;;7.05;3.65;;;;;;;0.72;73.9082;96234.09;;;;
2020/11/18 04:27:39;;;;;;;7.05;3.65;;;;;;;0.72;73.9082;96234.09;;;;
2020/11/18 04:28:40;;;;;;;7.05;3.65;;;;;;;0.72;73.9082;96234.09;;;;
2020/11/18 04:29:41;;;;;;;7.05;3.65;;;;;;;0.72;73.9082;96234.09;;;;
2020/11/18 04:30:42;;;;;;;7.05;3.65;;;;;;;0.72;73.9082;96234.09;;;;
2020/11/18 04:31:42;;;;;;;7.05;3.65;;;;;;;0.72;73.9082;96234.09;;;;
2020/11/18 04:32:43;;;;;;;4.199999;3.2;;;;;;;0.69;74.10156;96244.51;;;;
2020/11/18 04:33:43;;;;;;;4.199999;3.2;;;;;;;0.69;74.10156;96244.51;;;;
2020/11/18 04:34:44;;;;;;;4.199999;3.2;;;;;;;0.69;74.10156;96244.51;;;;
2020/11/18 04:35:44;;;;;;;4.199999;3.2;;;;;;;0.69;74.10156;96244.51;;;;
2020/11/18 04:36:45;;;;;;;4.199999;3.2;;;;;;;0.69;74.10156;96244.51;;;;
2020/11/18 04:37:45;;;;;;;4.199999;3.2;;;;;;;0.69;74.10156;96244.51;;;;
2020/11/18 04:38:46;;;;;;;4.199999;3.2;;;;;;;0.69;74.10156;96244.51;;;;
2020/11/18 04:39:46;;;;;;;4.199999;3.2;;;;;;;0.69;74.10156;96244.51;;;;
2020/11/18 04:40:47;;;;;;;4.199999;3.2;;;;;;;0.69;74.10156;96244.51;;;;
2020/11/18 04:41:48;;;;;;;4.199999;3.2;;;;;;;0.69;74.10156;96244.51;;;;
2020/11/18 04:42:49;;;;;;;4.199999;3.2;;;;;;;0.69;74.10156;96244.51;;;;
2020/11/18 04:43:49;;;;;;;4.949999;3.55;;;;;;;0.65;74.33398;96239.67;;;;
2020/11/18 04:44:51;;;;;;;4.949999;3.55;;;;;;;0.65;74.33398;96239.67;;;;
2020/11/18 04:45:51;;;;;;;4.949999;3.55;;;;;;;0.65;74.33398;96239.67;;;;
2020/11/18 04:46:52;;;;;;;4.949999;3.55;;;;;;;0.65;74.33398;96239.67;;;;
2020/11/18 04:47:53;;;;;;;4.949999;3.55;;;;;;;0.65;74.33398;96239.67;;;;
2020/11/18 04:48:53;;;;;;;4.949999;3.55;;;;;;;0.65;74.33398;96239.67;;;;
2020/11/18 04:49:54;;;;;;;4.949999;3.55;;;;;;;0.65;74.33398;96239.67;;;;
2020/11/18 04:50:54;;;;;;;4.949999;3.55;;;;;;;0.65;74.33398;96239.67;;;;
2020/11/18 04:51:55;;;;;;;4.949999;3.55;;;;;;;0.65;74.33398;96239.67;;;;
2020/11/18 04:52:55;;;;;;;4.949999;3.55;;;;;;;0.65;74.33398;96239.67;;;;
2020/11/18 04:53:56;;;;;;;5.450001;3.45;;;;;;;0.57;74.62402;96234.2;;;;
2020/11/18 04:54:56;;;;;;;5.450001;3.45;;;;;;;0.57;74.62402;96234.2;;;;
2020/11/18 04:55:57;;;;;;;5.450001;3.45;;;;;;;0.57;74.62402;96234.2;;;;
2020/11/18 04:57:01;;;;;;;5.450001;3.45;;;;;;;0.57;74.62402;96234.2;;;;
2020/11/18 04:58:01;;;;;;;5.450001;3.45;;;;;;;0.57;74.62402;96234.2;;;;
2020/11/18 04:59:04;;;;;;;5.450001;3.45;;;;;;;0.57;74.62402;96234.2;;;;
2020/11/18 05:00:06;;;;;;;5.450001;3.45;;;;;;;0.57;74.62402;96234.2;;;;
2020/11/18 05:01:07;;;;;;;5.450001;3.45;;;;;;;0.57;74.62402;96234.2;;;;
2020/11/18 05:02:11;;;;;;;5.450001;3.45;;;;;;;0.57;74.62402;96234.2;;;;
2020/11/18 05:03:14;;;;;;;5.450001;3.45;;;;;;;0.57;74.62402;96234.2;;;;
2020/11/18 05:04:17;;;;;;;5.450001;3.45;;;;;;;0.57;74.62402;96234.2;;;;
2020/11/18 05:05:27;;;;;;;5.25;3.55;;;;;;;0.5;74.68555;96237.52;;;;
2020/11/18 05:06:27;;;;;;;5.25;3.55;;;;;;;0.5;74.68555;96237.52;;;;
2020/11/18 05:07:34;;;;;;;5.25;3.55;;;;;;;0.5;74.68555;96237.52;;;;
2020/11/18 05:08:35;;;;;;;5.25;3.55;;;;;;;0.5;74.68555;96237.52;;;;
2020/11/18 05:09:36;;;;;;;5.25;3.55;;;;;;;0.5;74.68555;96237.52;;;;
2020/11/18 05:10:37;;;;;;;5.25;3.55;;;;;;;0.5;74.68555;96237.52;;;;
2020/11/18 05:11:39;;;;;;;5.25;3.55;;;;;;;0.5;74.68555;96237.52;;;;
2020/11/18 05:12:40;;;;;;;5.25;3.55;;;;;;;0.5;74.68555;96237.52;;;;
2020/11/18 05:13:40;;;;;;;5.25;3.55;;;;;;;0.5;74.68555;96237.52;;;;
2020/11/18 05:14:46;;;;;;;5.25;3.55;;;;;;;0.5;74.68555;96237.52;;;;
2020/11/18 05:15:46;;;;;;;5.199999;3.5;;;;;;;0.55;74.58984;96236.17;;;;
2020/11/18 05:16:47;;;;;;;5.199999;3.5;;;;;;;0.55;74.58984;96236.17;;;;
2020/11/18 05:17:48;;;;;;;5.199999;3.5;;;;;;;0.55;74.58984;96236.17;;;;
2020/11/18 05:18:49;;;;;;;5.199999;3.5;;;;;;;0.55;74.58984;96236.17;;;;
2020/11/18 05:19:49;;;;;;;5.199999;3.5;;;;;;;0.55;74.58984;96236.17;;;;
2020/11/18 05:20:54;;;;;;;5.199999;3.5;;;;;;;0.55;74.58984;96236.17;;;;
2020/11/18 05:21:54;;;;;;;5.199999;3.5;;;;;;;0.55;74.58984;96236.17;;;;
2020/11/18 05:23:37;;;;;;;5.199999;3.5;;;;;;;0.55;74.58984;96236.17;;;;
2020/11/18 05:24:39;;;;;;;5.199999;3.5;;;;;;;0.55;74.58984;96236.17;;;;
2020/11/18 05:25:40;;;;;;;5.800001;3.95;;;;;;;0.52;74.54297;96236.45;;;;
2020/11/18 05:26:41;;;;;;;5.800001;3.95;;;;;;;0.52;74.54297;96236.45;;;;
2020/11/18 05:27:42;;;;;;;5.800001;3.95;;;;;;;0.52;74.54297;96236.45;;;;
2020/11/18 05:28:45;;;;;;;5.800001;3.95;;;;;;;0.52;74.54297;96236.45;;;;
2020/11/18 05:29:48;;;;;;;5.800001;3.95;;;;;;;0.52;74.54297;96236.45;;;;
2020/11/18 05:30:51;;;;;;;5.800001;3.95;;;;;;;0.52;74.54297;96236.45;;;;
2020/11/18 05:31:52;;;;;;;5.800001;3.95;;;;;;;0.52;74.54297;96236.45;;;;
2020/11/18 05:32:54;;;;;;;5.800001;3.95;;;;;;;0.52;74.54297;96236.45;;;;
2020/11/18 05:33:56;;;;;;;5.800001;3.95;;;;;;;0.52;74.54297;96236.45;;;;
2020/11/18 05:34:57;;;;;;;5.800001;3.95;;;;;;;0.52;74.54297;96236.45;;;;
2020/11/18 05:36:01;;;;;;;5.800001;3.95;;;;;;;0.52;74.54297;96236.45;;;;
2020/11/18 05:37:03;;;;;;;5.200001;3.55;;;;;;;0.47;74.84766;96240.48;;;;
2020/11/18 05:38:05;;;;;;;5.200001;3.55;;;;;;;0.47;74.84766;96240.48;;;;